To NAV CANADA Home Page Login to a new session Search on AWWS site Feedback and Comments Disclaimer Vers la page française équivalente Tips FAQ What's new on the site To the Forecasts and Observations / NOTAM section To "File a Flight Plan" website Publications and other links Update of the User's profile FIC Telephone Numbers My Weather Data Folder Route Weather Data Regional Weather Data Local Weather Data To the Forecasts and Observations / NOTAM section
Request Generated 07/26/2016 at 14:04:17 UTC . Weather information available at that time is displayed.

METAR/TAF

ST. JOHN'S/ST. JOHN'S INTL/NL    

METAR CYYT 261400Z 04004KT 030V110 1 1/2SM BR OVC004 16/16 A2998 RMK
FG4SF4 SLP155 DENSITY ALT 600FT=
SPECI CYYT 261342Z 12003KT 080V150 3/4SM R11/P6000FT/N BR OVC003
16/16 A2998 RMK FG6SF2 SLP155 DENSITY ALT 600FT=
METAR CYYT 261300Z 09006KT 5/8SM R11/P6000FT/N -DZ BR VV001 16/15
A2997 RMK FG8 SLP153 DENSITY ALT 500FT=
METAR CYYT 261200Z 11006KT 5/8SM R29/4500VP6000FT/D -DZ BR VV002
16/15 A2997 RMK FG8 SLP152 DENSITY ALT 500FT=

TAF AMD CYYT 261339Z 2613/2712 09005KT 1/4SM FG VV001 TEMPO 2613/2615
6SM BR SCT006
FM261500 11008KT P6SM FEW040
FM270000 18005KT P6SM BKN060 BKN180
RMK NXT FCST BY 261800Z=
Your time UTC time
Weather data provided by Environment Canada and NAV CANADA